This is the latest recevied weather packets stored in our database for station/object WC4PEM-10. If no packets are shown the sender has not sent any weather packets the latest 1 day(s).
| Time | Temp. | Humidity | Pressure | Rain* | Wind** | Luminosity | Snow |
|---|---|---|---|---|---|---|---|
| 1777969289 | 17.22° C | 95% | 1013.7 hPa | 0 mm | 0.89 m/s, 93° | - | - |
| 1777968989 | 17.22° C | 94% | 1013.8 hPa | 0 mm | 0.89 m/s, 93° | - | - |
| 1777968972 | 17.22° C | 94% | 1013.7 hPa | 0 mm | 0.89 m/s, 80° | - | - |
| 1777968815 | 17.22° C | 94% | 1013.9 hPa | 0 mm | 0.89 m/s, 74° | - | - |
| 1777968697 | 17.22° C | 94% | 1013.9 hPa | 0 mm | 0.89 m/s, 74° | - | - |
| 1777968619 | 17.22° C | 94% | 1013.7 hPa | 0 mm | 0.89 m/s, 80° | - | - |
| 1777968389 | 17.22° C | 94% | 1013.7 hPa | 0 mm | 0.89 m/s, 80° | - | - |
| 1777968321 | 17.22° C | 93% | 1013.7 hPa | 0 mm | 0.89 m/s, 103° | - | - |
| 1777968219 | 17.22° C | 93% | 1014.1 hPa | 0 mm | 0.89 m/s, 85° | - | - |
| 1777968111 | 17.22° C | 93% | 1013.8 hPa | 0 mm | 0.89 m/s, 80° | - | - |
| 1777968089 | 17.22° C | 93% | 1013.7 hPa | 0 mm | 0.89 m/s, 103° | - | - |
| 1777967789 | 17.22° C | 93% | 1013.8 hPa | 0 mm | 0.89 m/s, 80° | - | - |
| 1777967489 | 17.22° C | 93% | 1014.1 hPa | 0 mm | 0.89 m/s, 61° | - | - |
| 1777967189 | 17.22° C | 93% | 1014.1 hPa | 0 mm | 0.89 m/s, 85° | - | - |
| 1777966893 | 17.78° C | 93% | 1013.9 hPa | 0 mm | 0.89 m/s, 108° | - | - |
| 1777966889 | 17.22° C | 93% | 1014 hPa | 0 mm | 0.89 m/s, 83° | - | - |
| 1777966589 | 17.78° C | 93% | 1013.9 hPa | 0 mm | 0.89 m/s, 108° | - | - |
| 1777966560 | 17.78° C | 92% | 1014.1 hPa | 0 mm | 0.89 m/s, 83° | - | - |
| 1777966289 | 17.78° C | 92% | 1014.1 hPa | 0 mm | 0.89 m/s, 83° | - | - |
| 1777966254 | 17.78° C | 93% | 1014.2 hPa | 0 mm | 1.34 m/s, 93° | - | - |
| 1777965989 | 17.78° C | 93% | 1014.2 hPa | 0 mm | 1.34 m/s, 93° | - | - |
* Rain latest hour (hover to see other rain measurements)
** Current wind speed in m/s (hover to see current wind gust speed)